createdAt,value
2023-03-06T00:00:47.693Z,23.67
2023-03-06T00:03:14.603Z,26.48
2023-03-06T00:05:41.532Z,30.08
2023-03-06T00:08:08.937Z,32.33
2023-03-06T00:10:35.808Z,25.50
2023-03-06T00:13:05.257Z,26.98
2023-03-06T00:15:32.445Z,34.15
2023-03-06T00:17:59.624Z,32.38
2023-03-06T00:20:27.045Z,24.75
2023-03-06T00:22:56.201Z,24.10
2023-03-06T00:25:24.033Z,24.58
2023-03-06T00:27:51.464Z,29.02
2023-03-06T00:30:21.760Z,23.35
2023-03-06T00:32:49.559Z,28.17
2023-03-06T00:35:16.660Z,26.25
2023-03-06T00:37:43.773Z,26.58
2023-03-06T00:40:13.878Z,23.63
2023-03-06T00:42:40.892Z,22.23
2023-03-06T00:45:08.461Z,28.23
2023-03-06T00:47:35.165Z,29.35
2023-03-06T00:50:01.929Z,23.40
2023-03-06T00:52:28.699Z,29.15
2023-03-06T00:54:55.533Z,29.52
2023-03-06T00:57:22.429Z,26.42
2023-03-06T00:59:49.161Z,26.38
2023-03-06T01:02:15.998Z,27.30
2023-03-06T01:04:42.710Z,24.88
2023-03-06T01:07:12.626Z,24.30
2023-03-06T01:09:39.380Z,25.55
2023-03-06T01:12:06.464Z,29.77
2023-03-06T01:14:33.484Z,31.17
2023-03-06T01:17:00.278Z,29.25
2023-03-06T01:19:26.986Z,28.95
2023-03-06T01:21:53.681Z,31.52
2023-03-06T01:24:20.444Z,28.15
2023-03-06T01:26:47.127Z,27.88
2023-03-06T01:29:13.842Z,22.98
2023-03-06T01:31:40.641Z,28.95
2023-03-06T01:34:07.530Z,26.13
2023-03-06T01:36:34.256Z,33.03
2023-03-06T01:39:01.013Z,21.48
2023-03-06T01:41:27.715Z,29.90
2023-03-06T01:43:54.435Z,27.85
2023-03-06T01:46:44.125Z,28.48
2023-03-06T01:49:40.439Z,27.20
2023-03-06T01:52:15.416Z,29.02
2023-03-06T01:54:44.347Z,28.23
2023-03-06T01:57:19.974Z,24.15
2023-03-06T01:59:49.491Z,31.02
2023-03-06T02:02:16.790Z,30.20
2023-03-06T02:04:44.200Z,27.98
2023-03-06T02:07:11.749Z,27.05
2023-03-06T02:09:39.317Z,28.25
2023-03-06T02:12:09.253Z,25.05
2023-03-06T02:14:36.241Z,27.10
2023-03-06T02:17:03.359Z,23.92
2023-03-06T02:19:40.858Z,30.10
2023-03-06T02:22:07.794Z,33.10
2023-03-06T02:24:37.406Z,31.25
2023-03-06T02:27:06.857Z,27.08
2023-03-06T02:29:33.690Z,30.52
2023-03-06T02:32:00.423Z,32.08
2023-03-06T02:34:27.099Z,24.40
2023-03-06T02:36:58.515Z,30.63
2023-03-06T02:39:29.200Z,27.88
2023-03-06T02:41:55.902Z,28.30
2023-03-06T02:44:23.756Z,25.30
2023-03-06T02:46:50.529Z,25.73
2023-03-06T02:49:17.220Z,28.27
2023-03-06T02:51:44.554Z,29.90
2023-03-06T02:54:11.327Z,37.15
2023-03-06T02:56:38.055Z,25.27
2023-03-06T02:59:04.740Z,38.75
2023-03-06T03:01:31.577Z,34.15
2023-03-06T03:03:58.270Z,23.40
2023-03-06T03:06:24.980Z,31.55
2023-03-06T03:08:51.704Z,31.75
2023-03-06T03:11:18.479Z,30.60
2023-03-06T03:13:45.165Z,25.13
2023-03-06T03:16:15.390Z,26.90
2023-03-06T03:18:48.173Z,25.25
2023-03-06T03:21:15.093Z,27.95
2023-03-06T03:23:42.008Z,27.60
2023-03-06T03:26:16.756Z,28.52
2023-03-06T03:28:43.676Z,24.33
2023-03-06T03:31:12.257Z,25.90
2023-03-06T03:33:40.236Z,31.67
2023-03-06T03:36:08.575Z,25.98
2023-03-06T03:38:36.140Z,23.40
2023-03-06T03:41:03.836Z,29.60
2023-03-06T03:43:30.754Z,30.05
2023-03-06T03:45:57.475Z,29.15
2023-03-06T03:48:24.278Z,25.20
2023-03-06T03:50:51.171Z,27.75
2023-03-06T03:53:17.956Z,27.55
2023-03-06T03:55:47.234Z,25.33
2023-03-06T03:58:13.994Z,28.92
2023-03-06T04:00:40.919Z,25.50
2023-03-06T04:03:07.701Z,33.00
2023-03-06T04:05:34.982Z,28.35
2023-03-06T04:08:03.223Z,24.02
2023-03-06T04:10:30.046Z,31.25
2023-03-06T04:12:57.180Z,26.92
2023-03-06T04:15:23.890Z,26.65
2023-03-06T04:17:50.736Z,29.67
2023-03-06T04:20:17.812Z,37.90
2023-03-06T04:22:44.623Z,31.25
2023-03-06T04:25:11.362Z,28.85
2023-03-06T04:27:38.122Z,27.17
2023-03-06T04:30:06.516Z,29.65
2023-03-06T04:32:33.387Z,23.77
2023-03-06T04:35:00.107Z,26.33
2023-03-06T04:37:27.606Z,31.73
2023-03-06T04:39:54.371Z,21.52
2023-03-06T04:42:21.169Z,21.77
2023-03-06T04:44:47.872Z,28.95
2023-03-06T04:47:15.037Z,24.90
2023-03-06T04:49:41.742Z,22.38
2023-03-06T04:52:08.634Z,21.80
2023-03-06T04:54:35.381Z,22.27
2023-03-06T04:57:03.363Z,21.45
2023-03-06T04:59:30.291Z,31.48
2023-03-06T05:01:58.176Z,22.25
2023-03-06T05:04:24.881Z,23.75
2023-03-06T05:06:51.609Z,24.35
2023-03-06T05:09:18.429Z,28.20
2023-03-06T05:11:45.234Z,27.20
2023-03-06T05:14:11.988Z,28.17
2023-03-06T05:16:38.727Z,18.17
2023-03-06T05:19:05.472Z,24.10
2023-03-06T05:21:32.232Z,31.58
2023-03-06T05:23:58.930Z,35.03
2023-03-06T05:26:25.664Z,50.78
2023-03-06T05:28:52.422Z,39.10
2023-03-06T05:31:19.241Z,29.30
2023-03-06T05:33:45.986Z,22.90
2023-03-06T05:36:12.750Z,24.70
2023-03-06T05:38:39.465Z,22.73
2023-03-06T05:41:06.184Z,25.05
2023-03-06T05:43:33.045Z,23.52
2023-03-06T05:46:04.915Z,21.67
2023-03-06T05:48:32.310Z,24.70
2023-03-06T05:51:00.196Z,24.48
2023-03-06T05:53:27.189Z,23.17
2023-03-06T05:56:03.833Z,23.48
2023-03-06T05:58:31.891Z,28.30
2023-03-06T06:00:58.981Z,28.85
2023-03-06T06:03:26.119Z,25.67
2023-03-06T06:05:52.944Z,24.55
2023-03-06T06:08:20.440Z,22.15
2023-03-06T06:10:47.317Z,25.60
2023-03-06T06:13:14.070Z,21.45
2023-03-06T06:15:40.820Z,24.27
2023-03-06T06:18:08.375Z,20.75
2023-03-06T06:20:37.990Z,26.45
2023-03-06T06:23:05.171Z,18.88
2023-03-06T06:25:32.314Z,24.25
2023-03-06T06:27:59.142Z,20.67
2023-03-06T06:30:25.827Z,19.88
2023-03-06T06:32:52.584Z,25.60
2023-03-06T06:35:19.457Z,22.95
2023-03-06T06:37:46.352Z,23.52
2023-03-06T06:40:13.319Z,20.85
2023-03-06T06:42:40.509Z,23.77
2023-03-06T06:45:10.042Z,24.13
2023-03-06T06:47:41.124Z,19.55
2023-03-06T06:50:13.167Z,22.38
2023-03-06T06:52:40.039Z,22.55
2023-03-06T06:55:07.167Z,21.63
2023-03-06T06:57:34.216Z,24.20
2023-03-06T07:00:01.006Z,23.58
2023-03-06T07:02:27.775Z,25.85
2023-03-06T07:05:04.180Z,22.42
2023-03-06T07:07:35.358Z,20.50
2023-03-06T07:10:05.533Z,28.95
2023-03-06T07:12:32.993Z,28.40
2023-03-06T07:14:59.719Z,24.77
2023-03-06T07:17:26.526Z,29.00
2023-03-06T07:19:53.262Z,18.08
2023-03-06T07:22:19.990Z,20.98
2023-03-06T07:24:46.834Z,16.42
2023-03-06T07:27:13.564Z,18.05
2023-03-06T07:29:42.896Z,26.27
2023-03-06T07:32:10.180Z,22.98
2023-03-06T07:34:37.750Z,30.73
2023-03-06T07:37:04.480Z,23.75
2023-03-06T07:39:31.161Z,25.60
2023-03-06T07:41:58.633Z,23.67
2023-03-06T07:44:25.360Z,24.58
2023-03-06T07:46:52.125Z,27.58
2023-03-06T07:49:19.104Z,24.50
2023-03-06T07:51:45.943Z,26.80
2023-03-06T07:54:12.709Z,30.60
2023-03-06T07:56:39.426Z,17.75
2023-03-06T07:59:06.146Z,18.20
2023-03-06T08:01:33.085Z,23.45
2023-03-06T08:04:01.960Z,22.40
2023-03-06T08:06:28.918Z,23.73
2023-03-06T08:08:57.381Z,23.58
2023-03-06T08:11:26.569Z,23.05
2023-03-06T08:13:54.275Z,33.20
2023-03-06T08:16:22.706Z,29.50
2023-03-06T08:18:50.435Z,23.30
2023-03-06T08:21:23.785Z,20.73
2023-03-06T08:23:51.170Z,23.20
2023-03-06T08:26:20.498Z,34.17
2023-03-06T08:28:47.401Z,19.80
2023-03-06T08:31:19.957Z,19.05
2023-03-06T08:33:46.860Z,28.95
2023-03-06T08:36:13.575Z,22.48
2023-03-06T08:38:40.365Z,25.10
2023-03-06T08:41:07.052Z,21.42
2023-03-06T08:43:35.747Z,25.58
2023-03-06T08:46:02.592Z,22.20
2023-03-06T08:48:30.629Z,20.55
2023-03-06T08:50:57.662Z,26.23
2023-03-06T08:53:40.485Z,24.10
2023-03-06T08:56:16.819Z,22.92
2023-03-06T08:58:43.678Z,16.08
2023-03-06T09:01:19.260Z,26.50
2023-03-06T09:03:46.628Z,24.67
2023-03-06T09:06:14.036Z,20.73
2023-03-06T09:08:44.641Z,24.52
2023-03-06T09:11:13.142Z,27.13
2023-03-06T09:13:40.431Z,24.73
2023-03-06T09:16:08.458Z,25.20
2023-03-06T09:18:35.467Z,24.88
2023-03-06T09:21:04.040Z,24.05
2023-03-06T09:23:31.044Z,24.10
2023-03-06T09:26:00.422Z,26.98
2023-03-06T09:28:27.579Z,34.28
2023-03-06T09:30:54.720Z,22.48
2023-03-06T09:33:21.992Z,32.28
2023-03-06T09:35:55.304Z,24.65
2023-03-06T09:38:25.068Z,27.40
2023-03-06T09:40:57.562Z,24.08
2023-03-06T09:43:40.697Z,25.13
2023-03-06T09:46:19.015Z,27.17
2023-03-06T09:48:48.635Z,28.63
2023-03-06T09:51:19.640Z,25.08
2023-03-06T09:54:15.571Z,25.42
2023-03-06T09:56:50.435Z,24.60
2023-03-06T09:59:20.941Z,25.10
2023-03-06T10:02:15.021Z,26.33
2023-03-06T10:04:46.222Z,30.85
2023-03-06T10:07:19.853Z,27.85
2023-03-06T10:09:50.675Z,23.95
2023-03-06T10:12:36.194Z,30.83
2023-03-06T10:15:16.835Z,26.30
2023-03-06T10:17:43.950Z,21.77
2023-03-06T10:20:21.268Z,25.00
2023-03-06T10:23:06.847Z,63.15
2023-03-06T10:25:46.386Z,29.75
2023-03-06T10:28:57.422Z,25.88
2023-03-06T10:31:26.736Z,26.67
2023-03-06T10:34:17.150Z,27.75
2023-03-06T10:36:43.967Z,28.63
2023-03-06T10:39:19.888Z,23.77
2023-03-06T10:41:47.805Z,24.25
2023-03-06T10:44:14.471Z,25.95
2023-03-06T10:46:43.945Z,22.40
2023-03-06T10:49:32.787Z,24.30
2023-03-06T10:52:14.826Z,23.75
2023-03-06T10:54:44.966Z,26.45
2023-03-06T10:57:24.997Z,27.75
2023-03-06T10:59:54.544Z,23.02
2023-03-06T11:02:31.335Z,20.08
2023-03-06T11:05:01.002Z,17.70
2023-03-06T11:07:36.300Z,26.92
2023-03-06T11:10:19.960Z,21.23
2023-03-06T11:13:21.893Z,21.15
2023-03-06T11:16:06.936Z,21.63
2023-03-06T11:18:40.714Z,23.02
2023-03-06T11:21:24.892Z,19.40
2023-03-06T11:23:53.777Z,18.73
2023-03-06T11:26:34.972Z,24.50
2023-03-06T11:29:29.336Z,24.17
2023-03-06T11:32:06.987Z,19.20
2023-03-06T11:34:50.374Z,21.13
2023-03-06T11:37:32.661Z,19.35
2023-03-06T11:40:12.084Z,26.92
2023-03-06T11:43:21.038Z,19.48
2023-03-06T11:45:58.026Z,22.50
2023-03-06T11:48:35.807Z,20.05
2023-03-06T11:51:21.372Z,20.75
2023-03-06T11:53:49.041Z,22.00
2023-03-06T11:56:18.474Z,21.55
2023-03-06T11:58:48.378Z,22.55
2023-03-06T12:01:24.342Z,17.67
2023-03-06T12:04:01.923Z,22.23
2023-03-06T12:06:40.287Z,26.55
2023-03-06T12:09:25.199Z,21.17
2023-03-06T12:12:24.513Z,31.05
2023-03-06T12:15:09.307Z,19.80
2023-03-06T12:18:18.005Z,23.00
2023-03-06T12:21:08.382Z,21.73
2023-03-06T12:23:52.011Z,17.73
2023-03-06T12:26:34.912Z,19.97
2023-03-06T12:29:45.883Z,14.93
2023-03-06T12:32:35.188Z,17.60
2023-03-06T12:35:31.863Z,16.53
2023-03-06T12:38:25.078Z,17.97
2023-03-06T12:41:12.486Z,17.03
2023-03-06T12:43:40.143Z,16.73
2023-03-06T12:46:15.338Z,21.03
2023-03-06T12:48:47.385Z,14.57
2023-03-06T12:51:18.713Z,16.00
2023-03-06T12:53:46.525Z,18.10
2023-03-06T12:56:16.441Z,16.08
2023-03-06T12:58:54.835Z,14.67
2023-03-06T13:01:43.245Z,14.55
2023-03-06T13:04:31.195Z,14.63
2023-03-06T13:07:35.691Z,15.15
2023-03-06T13:10:10.237Z,15.52
2023-03-06T13:12:49.915Z,14.68
2023-03-06T13:15:35.173Z,13.15
2023-03-06T13:18:22.223Z,13.82
2023-03-06T13:20:58.161Z,15.65
2023-03-06T13:23:49.775Z,11.85
2023-03-06T13:27:07.040Z,17.77
2023-03-06T13:29:36.982Z,14.20
2023-03-06T13:32:03.923Z,14.85
2023-03-06T13:34:41.547Z,14.35
2023-03-06T13:37:17.223Z,15.60
2023-03-06T13:39:56.716Z,13.77
2023-03-06T13:42:36.209Z,11.80
2023-03-06T13:45:14.909Z,14.57
2023-03-06T13:50:47.071Z,16.65
2023-03-06T13:53:23.726Z,14.68
2023-03-06T13:56:21.477Z,12.70
2023-03-06T13:59:15.142Z,11.13
2023-03-06T14:02:10.353Z,11.60
2023-03-06T14:04:57.634Z,13.52
2023-03-06T14:07:26.608Z,15.73
2023-03-06T14:10:05.547Z,12.98
2023-03-06T14:12:40.113Z,11.25
2023-03-06T14:15:40.523Z,13.20
2023-03-06T14:18:13.395Z,12.25
2023-03-06T14:20:40.219Z,13.07
2023-03-06T14:23:32.254Z,14.20
2023-03-06T14:26:19.575Z,11.55
2023-03-06T14:28:58.511Z,16.92
2023-03-06T14:31:36.403Z,14.15
2023-03-06T14:34:08.678Z,11.30
2023-03-06T14:36:47.561Z,10.20
2023-03-06T14:39:21.010Z,10.05
2023-03-06T14:41:48.199Z,13.15
2023-03-06T14:44:23.340Z,9.35
2023-03-06T14:46:52.229Z,9.60
2023-03-06T14:49:20.646Z,15.30
2023-03-06T14:51:50.921Z,10.80
2023-03-06T14:54:20.545Z,10.95
2023-03-06T14:57:02.492Z,10.75
2023-03-06T14:59:34.256Z,13.10
2023-03-06T15:02:05.164Z,31.17
2023-03-06T15:04:44.912Z,13.98
2023-03-06T15:07:22.976Z,9.52
2023-03-06T15:09:52.357Z,12.18
2023-03-06T15:12:19.837Z,12.15
2023-03-06T15:15:04.020Z,10.43
2023-03-06T15:17:38.012Z,11.88
2023-03-06T15:20:08.825Z,11.90
2023-03-06T15:22:42.502Z,10.73
2023-03-06T15:25:30.227Z,16.40
2023-03-06T15:28:02.587Z,9.60
2023-03-06T15:30:37.190Z,10.23
2023-03-06T15:33:24.340Z,13.00
2023-03-06T15:36:02.033Z,11.02
2023-03-06T15:38:42.248Z,16.70
2023-03-06T15:41:26.831Z,11.82
2023-03-06T15:43:53.647Z,11.82
2023-03-06T15:46:20.384Z,14.80
2023-03-06T15:48:54.657Z,23.10
2023-03-06T15:51:21.394Z,10.88
2023-03-06T15:53:48.216Z,9.63
2023-03-06T15:56:15.170Z,12.60
2023-03-06T15:58:42.624Z,10.85
2023-03-06T16:01:16.289Z,11.60
2023-03-06T16:03:44.029Z,9.40
2023-03-06T16:06:18.973Z,9.50
2023-03-06T16:08:45.967Z,8.80
2023-03-06T16:11:19.409Z,10.65
2023-03-06T16:13:46.429Z,9.95
2023-03-06T16:16:19.536Z,9.55
2023-03-06T16:18:46.764Z,7.78
2023-03-06T16:21:14.092Z,10.57
2023-03-06T16:23:41.256Z,9.75
2023-03-06T16:26:19.443Z,8.27
2023-03-06T16:28:46.691Z,9.55
2023-03-06T16:31:14.189Z,9.13
2023-03-06T16:33:41.638Z,10.68
2023-03-06T16:36:16.914Z,10.80
2023-03-06T16:38:43.694Z,10.60
2023-03-06T16:41:10.523Z,10.88
2023-03-06T16:43:37.321Z,27.63
2023-03-06T16:46:06.876Z,27.70
2023-03-06T16:48:34.003Z,18.85
2023-03-06T16:51:00.817Z,10.35
2023-03-06T16:53:27.621Z,9.27
2023-03-06T16:55:54.425Z,12.60
2023-03-06T16:58:21.729Z,11.05
2023-03-06T17:00:48.492Z,10.98
2023-03-06T17:03:16.846Z,11.65
2023-03-06T17:05:44.196Z,11.25
2023-03-06T17:08:11.084Z,16.60
2023-03-06T17:10:40.947Z,13.85
2023-03-06T17:13:08.621Z,14.30
2023-03-06T17:15:35.371Z,10.88
2023-03-06T17:18:02.533Z,12.05
2023-03-06T17:20:29.305Z,12.93
2023-03-06T17:22:56.398Z,11.30
2023-03-06T17:25:23.290Z,12.05
2023-03-06T17:27:50.108Z,16.52
2023-03-06T17:30:16.970Z,11.93
2023-03-06T17:32:43.959Z,10.77
2023-03-06T17:35:10.904Z,15.38
2023-03-06T17:37:37.728Z,13.00
2023-03-06T17:40:08.150Z,13.55
2023-03-06T17:42:35.380Z,12.25
2023-03-06T17:45:02.483Z,18.58
2023-03-06T17:47:29.286Z,11.95
2023-03-06T17:49:56.054Z,15.43
2023-03-06T17:52:22.813Z,27.13
2023-03-06T17:54:49.820Z,25.95
2023-03-06T17:57:16.557Z,20.90
2023-03-06T17:59:47.761Z,19.90
2023-03-06T18:02:15.436Z,17.67
2023-03-06T18:04:42.284Z,15.10
2023-03-06T18:07:10.249Z,21.63
2023-03-06T18:09:37.673Z,14.15
2023-03-06T18:12:04.616Z,14.88
2023-03-06T18:14:31.417Z,18.65
2023-03-06T18:16:58.171Z,14.80
2023-03-06T18:19:25.097Z,13.45
2023-03-06T18:21:51.820Z,13.80
2023-03-06T18:24:18.668Z,14.60
2023-03-06T18:26:45.862Z,12.35
2023-03-06T18:29:13.090Z,17.10
2023-03-06T18:31:41.497Z,17.40
2023-03-06T18:34:14.513Z,11.55
2023-03-06T18:36:43.510Z,16.48
2023-03-06T18:39:11.974Z,21.05
2023-03-06T18:41:39.183Z,11.85
2023-03-06T18:44:06.658Z,14.10
2023-03-06T18:46:38.386Z,13.00
2023-03-06T18:49:06.059Z,12.63
2023-03-06T18:51:33.221Z,15.40
2023-03-06T18:54:01.452Z,15.38
2023-03-06T18:56:28.347Z,14.80
2023-03-06T18:58:55.327Z,13.82
2023-03-06T19:01:22.991Z,12.35
2023-03-06T19:03:50.405Z,11.95
2023-03-06T19:06:17.739Z,11.88
2023-03-06T19:08:44.664Z,11.88
2023-03-06T19:11:14.659Z,13.55
2023-03-06T19:13:41.992Z,42.33
2023-03-06T19:16:09.381Z,34.50
2023-03-06T19:18:36.396Z,23.52
2023-03-06T19:21:15.016Z,16.35
2023-03-06T19:23:42.458Z,16.23
2023-03-06T19:26:10.301Z,19.90
2023-03-06T19:28:39.328Z,17.48
2023-03-06T19:31:19.604Z,15.85
2023-03-06T19:33:48.081Z,17.58
2023-03-06T19:36:16.792Z,12.77
2023-03-06T19:38:43.770Z,13.30
2023-03-06T19:41:13.468Z,12.75
2023-03-06T19:43:41.656Z,14.57
2023-03-06T19:46:15.049Z,16.83
2023-03-06T19:48:42.359Z,13.20
2023-03-06T19:51:10.359Z,14.02
2023-03-06T19:53:37.814Z,13.10
2023-03-06T19:56:10.463Z,15.23
2023-03-06T19:58:38.290Z,14.63
2023-03-06T20:01:11.840Z,13.13
2023-03-06T20:03:39.477Z,15.05
2023-03-06T20:06:09.124Z,13.48
2023-03-06T20:08:36.741Z,13.05
2023-03-06T20:11:04.258Z,13.02
2023-03-06T20:13:31.335Z,14.38
2023-03-06T20:16:02.218Z,11.48
2023-03-06T20:18:29.026Z,15.23
2023-03-06T20:21:03.892Z,14.25
2023-03-06T20:23:31.579Z,15.70
2023-03-06T20:26:09.716Z,13.82
2023-03-06T20:28:38.091Z,14.25
2023-03-06T20:31:08.908Z,10.05
2023-03-06T20:33:35.921Z,18.38
2023-03-06T20:36:02.854Z,14.00
2023-03-06T20:38:29.593Z,13.55
2023-03-06T20:40:57.881Z,11.40
2023-03-06T20:43:24.573Z,10.95
2023-03-06T20:46:03.138Z,9.77
2023-03-06T20:48:30.330Z,15.48
2023-03-06T20:51:02.842Z,11.30
2023-03-06T20:53:29.933Z,10.80
2023-03-06T20:55:57.180Z,12.27
2023-03-06T20:58:28.636Z,10.80
2023-03-06T21:00:56.029Z,18.17
2023-03-06T21:03:22.823Z,11.93
2023-03-06T21:05:49.801Z,11.05
2023-03-06T21:08:16.718Z,14.35
2023-03-06T21:10:46.186Z,12.52
2023-03-06T21:13:13.436Z,11.18
2023-03-06T21:15:41.659Z,12.48
2023-03-06T21:18:09.346Z,11.68
2023-03-06T21:20:39.543Z,16.17
2023-03-06T21:23:07.545Z,13.98
2023-03-06T21:25:34.389Z,13.32
2023-03-06T21:28:01.279Z,13.25
2023-03-06T21:30:29.569Z,12.60
2023-03-06T21:32:56.545Z,13.45
2023-03-06T21:35:23.319Z,15.25
2023-03-06T21:37:50.108Z,11.70
2023-03-06T21:40:16.941Z,12.55
2023-03-06T21:42:43.695Z,9.20
2023-03-06T21:45:10.894Z,12.05
2023-03-06T21:47:38.878Z,11.40
2023-03-06T21:50:10.396Z,10.10
2023-03-06T21:52:37.479Z,11.77
2023-03-06T21:55:04.622Z,10.32
2023-03-06T21:57:31.472Z,10.43
2023-03-06T21:59:58.207Z,10.95
2023-03-06T22:02:25.080Z,11.43
2023-03-06T22:04:53.287Z,8.07
2023-03-06T22:07:20.453Z,12.38
2023-03-06T22:09:47.342Z,9.35
2023-03-06T22:12:14.483Z,10.52
2023-03-06T22:14:43.853Z,13.60
2023-03-06T22:17:10.636Z,15.48
2023-03-06T22:19:37.364Z,13.80
2023-03-06T22:22:04.829Z,12.75
2023-03-06T22:24:32.014Z,11.88
2023-03-06T22:26:58.862Z,14.38
2023-03-06T22:29:25.778Z,12.60
2023-03-06T22:31:53.051Z,12.32
2023-03-06T22:34:19.818Z,9.65
2023-03-06T22:36:46.615Z,14.00
2023-03-06T22:39:14.018Z,11.50
2023-03-06T22:41:41.332Z,10.88
2023-03-06T22:44:09.316Z,11.30
2023-03-06T22:46:36.249Z,11.85
2023-03-06T22:49:03.250Z,9.48
2023-03-06T22:51:30.153Z,9.50
2023-03-06T22:53:56.981Z,9.48
2023-03-06T22:56:24.305Z,10.93
2023-03-06T22:58:51.226Z,12.43
2023-03-06T23:01:23.271Z,11.20
2023-03-06T23:03:52.736Z,9.35
2023-03-06T23:06:21.037Z,10.80
2023-03-06T23:08:56.880Z,11.80
2023-03-06T23:11:24.845Z,11.23
2023-03-06T23:13:52.844Z,12.07
2023-03-06T23:16:19.681Z,8.68
2023-03-06T23:18:46.511Z,8.77
2023-03-06T23:21:16.128Z,9.77
2023-03-06T23:23:44.288Z,13.25
2023-03-06T23:26:13.502Z,9.73
2023-03-06T23:28:40.947Z,10.20
2023-03-06T23:31:19.669Z,9.48
2023-03-06T23:33:46.665Z,12.50
2023-03-06T23:36:15.818Z,12.40
2023-03-06T23:38:43.434Z,12.93
2023-03-06T23:41:15.847Z,8.65
2023-03-06T23:43:42.896Z,10.85
2023-03-06T23:46:10.236Z,14.52
2023-03-06T23:48:39.444Z,11.05
2023-03-06T23:51:13.354Z,11.35
2023-03-06T23:53:40.116Z,10.23
2023-03-06T23:56:07.453Z,10.98
2023-03-06T23:58:34.542Z,13.13
